createdAt,value
2022-09-23T00:00:07.731Z,96.48
2022-09-23T00:01:07.831Z,96.17
2022-09-23T00:02:07.843Z,96.99
2022-09-23T00:03:07.686Z,95.76
2022-09-23T00:04:07.728Z,95.40
2022-09-23T00:05:07.783Z,94.31
2022-09-23T00:06:07.794Z,94.37
2022-09-23T00:07:08.767Z,94.68
2022-09-23T00:08:07.780Z,94.37
2022-09-23T00:14:19.111Z,93.34
2022-09-23T00:14:44.551Z,93.24
2022-09-23T00:15:44.685Z,93.54
2022-09-23T00:16:44.783Z,93.90
2022-09-23T00:17:44.684Z,94.42
2022-09-23T00:18:44.609Z,94.62
2022-09-23T00:19:44.727Z,94.42
2022-09-23T00:20:44.620Z,94.72
2022-09-23T00:21:44.624Z,94.52
2022-09-23T00:22:45.216Z,95.24
2022-09-23T00:23:44.612Z,95.90
2022-09-23T00:24:44.573Z,95.70
2022-09-23T00:25:44.549Z,95.70
2022-09-23T00:26:44.561Z,96.01
2022-09-23T00:27:44.709Z,95.80
2022-09-23T00:28:44.454Z,95.49
2022-09-23T00:29:44.418Z,95.90
2022-09-23T00:30:44.516Z,95.90
2022-09-23T00:31:44.431Z,95.80
2022-09-23T00:32:44.489Z,95.07
2022-09-23T00:33:44.451Z,95.18
2022-09-23T00:34:44.435Z,95.59
2022-09-23T00:35:44.454Z,94.67
2022-09-23T00:36:44.608Z,94.67
2022-09-23T00:37:44.553Z,96.01
2022-09-23T00:38:44.535Z,95.49
2022-09-23T00:39:45.516Z,96.01
2022-09-23T00:40:44.599Z,95.80
2022-09-23T00:41:45.528Z,96.01
2022-09-23T00:42:44.628Z,95.70
2022-09-23T00:43:44.507Z,95.49
2022-09-23T00:44:44.434Z,95.28
2022-09-23T00:45:44.512Z,95.53
2022-09-23T00:46:44.460Z,95.80
2022-09-23T00:47:44.446Z,96.21
2022-09-23T00:48:44.396Z,95.39
2022-09-23T00:49:44.388Z,96.67
2022-09-23T00:50:45.313Z,96.01
2022-09-23T00:51:44.351Z,96.05
2022-09-23T00:52:44.310Z,97.08
2022-09-23T00:53:44.390Z,96.31
2022-09-23T00:54:44.282Z,96.67
2022-09-23T00:55:44.855Z,96.42
2022-09-23T00:56:44.451Z,96.56
2022-09-23T00:57:44.350Z,96.01
2022-09-23T00:58:44.341Z,96.21
2022-09-23T00:59:44.409Z,96.05
2022-09-23T01:00:44.325Z,96.67
2022-09-23T01:01:44.420Z,96.98
2022-09-23T01:02:44.387Z,97.19
2022-09-23T01:03:44.356Z,97.08
2022-09-23T01:04:44.321Z,97.60
2022-09-23T01:05:44.356Z,97.39
2022-09-23T01:06:44.203Z,97.19
2022-09-23T01:07:45.318Z,97.39
2022-09-23T01:08:44.276Z,96.72
2022-09-23T01:09:44.234Z,97.13
2022-09-23T01:10:44.251Z,97.29
2022-09-23T01:11:44.190Z,96.56
2022-09-23T01:12:44.265Z,96.41
2022-09-23T01:13:44.178Z,96.30
2022-09-23T01:14:44.272Z,96.61
2022-09-23T01:15:44.288Z,97.33
2022-09-23T01:16:44.390Z,96.51
2022-09-23T01:17:44.245Z,96.41
2022-09-23T01:18:45.213Z,96.82
2022-09-23T01:19:44.219Z,95.84
2022-09-23T01:20:44.201Z,96.36
2022-09-23T01:21:44.265Z,95.78
2022-09-23T01:22:44.229Z,95.57
2022-09-23T01:24:11.598Z,94.85
2022-09-23T01:24:45.099Z,95.48
2022-09-23T01:25:44.186Z,95.17
2022-09-23T01:26:44.254Z,94.29
2022-09-23T01:27:44.134Z,94.40
2022-09-23T01:28:44.092Z,94.40
2022-09-23T01:29:44.039Z,94.44
2022-09-23T01:30:44.265Z,95.12
2022-09-23T01:31:44.130Z,94.60
2022-09-23T01:32:44.514Z,94.81
2022-09-23T01:33:44.105Z,94.29
2022-09-23T01:34:44.076Z,94.50
2022-09-23T01:35:44.221Z,94.50
2022-09-23T01:36:44.110Z,94.50
2022-09-23T01:37:44.120Z,94.81
2022-09-23T01:38:44.093Z,94.29
2022-09-23T01:39:44.108Z,93.78
2022-09-23T01:40:44.103Z,93.26
2022-09-23T01:41:44.039Z,93.37
2022-09-23T01:42:44.068Z,92.85
2022-09-23T01:43:44.075Z,92.80
2022-09-23T01:44:44.177Z,92.64
2022-09-23T01:45:43.966Z,93.47
2022-09-23T01:46:43.931Z,93.37
2022-09-23T01:47:44.893Z,92.85
2022-09-23T01:48:43.998Z,93.26
2022-09-23T01:49:44.042Z,92.89
2022-09-23T01:50:44.016Z,93.30
2022-09-23T01:51:44.022Z,93.72
2022-09-23T01:52:43.983Z,94.03
2022-09-23T01:53:44.105Z,94.03
2022-09-23T01:54:43.970Z,93.82
2022-09-23T01:55:43.961Z,94.13
2022-09-23T01:56:43.950Z,94.59
2022-09-23T01:57:43.933Z,94.65
2022-09-23T01:58:44.952Z,94.48
2022-09-23T01:59:43.988Z,93.87
2022-09-23T02:00:43.907Z,93.72
2022-09-23T02:01:43.853Z,93.72
2022-09-23T02:02:43.917Z,94.03
2022-09-23T02:03:43.821Z,93.51
2022-09-23T02:04:43.972Z,93.51
2022-09-23T02:05:43.856Z,93.62
2022-09-23T02:06:43.896Z,94.07
2022-09-23T02:07:43.793Z,94.07
2022-09-23T02:08:43.878Z,94.48
2022-09-23T02:09:43.908Z,94.28
2022-09-23T02:10:43.872Z,94.07
2022-09-23T02:11:43.878Z,94.84
2022-09-23T02:12:43.867Z,94.69
2022-09-23T02:13:43.863Z,94.69
2022-09-23T02:14:43.892Z,94.22
2022-09-23T02:15:43.895Z,94.07
2022-09-23T02:16:43.888Z,93.91
2022-09-23T02:17:43.795Z,94.12
2022-09-23T02:18:44.713Z,94.84
2022-09-23T02:19:43.820Z,94.43
2022-09-23T02:20:43.844Z,95.15
2022-09-23T02:21:43.769Z,95.04
2022-09-23T02:22:43.781Z,94.43
2022-09-23T02:23:43.771Z,94.57
2022-09-23T02:24:43.782Z,93.18
2022-09-23T02:25:43.768Z,92.87
2022-09-23T02:26:43.780Z,92.97
2022-09-23T02:27:44.009Z,92.87
2022-09-23T02:28:43.684Z,93.23
2022-09-23T02:29:43.636Z,93.23
2022-09-23T02:30:44.686Z,92.87
2022-09-23T02:31:43.718Z,93.43
2022-09-23T02:32:43.723Z,93.54
2022-09-23T02:33:43.615Z,93.54
2022-09-23T02:34:43.673Z,93.54
2022-09-23T02:35:43.744Z,93.43
2022-09-23T02:36:43.953Z,93.02
2022-09-23T02:37:43.718Z,92.77
2022-09-23T02:38:43.680Z,93.02
2022-09-23T02:39:43.719Z,93.85
2022-09-23T02:40:43.720Z,93.64
2022-09-23T02:41:43.681Z,93.33
2022-09-23T02:42:43.728Z,93.85
2022-09-23T02:43:43.658Z,93.74
2022-09-23T02:44:44.659Z,93.54
2022-09-23T02:45:43.715Z,93.54
2022-09-23T02:46:43.650Z,92.91
2022-09-23T02:47:44.110Z,93.12
2022-09-23T02:48:43.533Z,93.33
2022-09-23T02:49:43.538Z,93.02
2022-09-23T02:50:43.497Z,92.71
2022-09-23T02:51:43.593Z,93.12
2022-09-23T02:52:43.524Z,93.33
2022-09-23T02:53:43.573Z,92.85
2022-09-23T02:54:43.471Z,92.76
2022-09-23T02:55:43.554Z,93.37
2022-09-23T02:56:43.513Z,93.16
2022-09-23T02:57:43.582Z,93.58
2022-09-23T02:58:43.587Z,93.37
2022-09-23T02:59:43.526Z,93.16
2022-09-23T03:00:43.577Z,92.85
2022-09-23T03:01:43.508Z,93.48
2022-09-23T03:02:43.713Z,93.89
2022-09-23T03:03:43.516Z,93.99
2022-09-23T03:04:43.578Z,93.89
2022-09-23T03:05:43.503Z,94.51
2022-09-23T03:06:43.423Z,94.20
2022-09-23T03:07:43.415Z,94.62
2022-09-23T03:08:43.465Z,94.89
2022-09-23T03:09:43.439Z,94.72
2022-09-23T03:10:43.381Z,94.72
2022-09-23T03:11:43.381Z,94.82
2022-09-23T03:12:43.538Z,96.11
2022-09-23T03:13:43.439Z,95.86
2022-09-23T03:14:43.541Z,95.96
2022-09-23T03:15:43.431Z,95.86
2022-09-23T03:16:43.506Z,96.17
2022-09-23T03:17:43.470Z,95.03
2022-09-23T03:18:43.392Z,94.72
2022-09-23T03:19:43.432Z,94.82
2022-09-23T03:20:43.415Z,94.82
2022-09-23T03:21:43.393Z,94.51
2022-09-23T03:22:43.374Z,94.51
2022-09-23T03:23:43.423Z,94.20
2022-09-23T03:24:43.389Z,94.93
2022-09-23T03:25:43.417Z,94.72
2022-09-23T03:26:43.265Z,95.03
2022-09-23T03:27:43.233Z,94.51
2022-09-23T03:28:43.327Z,93.79
2022-09-23T03:29:43.325Z,93.79
2022-09-23T03:30:43.354Z,94.20
2022-09-23T03:31:43.372Z,94.04
2022-09-23T03:32:43.313Z,94.51
2022-09-23T03:33:43.299Z,94.20
2022-09-23T03:34:43.267Z,94.56
2022-09-23T03:35:43.291Z,94.97
2022-09-23T03:36:44.630Z,94.76
2022-09-23T03:37:43.300Z,94.66
2022-09-23T03:38:43.276Z,94.66
2022-09-23T03:39:43.246Z,94.76
2022-09-23T03:40:43.351Z,94.91
2022-09-23T03:41:43.182Z,95.84
2022-09-23T03:42:43.177Z,96.01
2022-09-23T03:43:43.256Z,96.67
2022-09-23T03:44:43.166Z,95.84
2022-09-23T03:45:43.338Z,96.05
2022-09-23T03:46:43.328Z,96.05
2022-09-23T03:47:43.216Z,96.36
2022-09-23T03:48:43.253Z,95.18
2022-09-23T03:49:43.181Z,94.87
2022-09-23T03:50:43.186Z,94.87
2022-09-23T03:51:44.788Z,95.28
2022-09-23T03:52:44.263Z,95.07
2022-09-23T03:53:43.166Z,93.98
2022-09-23T03:54:43.155Z,94.39
2022-09-23T03:55:43.164Z,94.60
2022-09-23T03:56:43.127Z,94.74
2022-09-23T03:57:43.159Z,95.74
2022-09-23T03:58:43.166Z,96.30
2022-09-23T03:59:43.154Z,96.20
2022-09-23T04:00:43.132Z,96.72
2022-09-23T04:01:43.159Z,96.36
2022-09-23T04:02:43.003Z,97.13
2022-09-23T04:03:43.009Z,97.50
2022-09-23T04:04:43.080Z,97.29
2022-09-23T04:05:43.087Z,96.05
2022-09-23T04:06:43.061Z,96.26
2022-09-23T04:07:43.111Z,96.78
2022-09-23T04:08:43.098Z,96.88
2022-09-23T04:09:43.074Z,96.15
2022-09-23T04:10:43.046Z,95.74
2022-09-23T04:11:43.079Z,95.84
2022-09-23T04:12:43.050Z,95.43
2022-09-23T04:13:43.011Z,95.90
2022-09-23T04:14:43.049Z,95.43
2022-09-23T04:15:43.020Z,96.26
2022-09-23T04:16:43.070Z,95.59
2022-09-23T04:17:42.982Z,95.59
2022-09-23T04:18:42.995Z,94.97
2022-09-23T04:19:43.022Z,95.18
2022-09-23T04:20:43.224Z,94.66
2022-09-23T04:21:42.897Z,94.76
2022-09-23T04:22:42.882Z,94.45
2022-09-23T04:23:42.937Z,94.66
2022-09-23T04:24:42.885Z,94.66
2022-09-23T04:25:42.888Z,94.97
2022-09-23T04:26:42.827Z,95.07
2022-09-23T04:27:42.830Z,94.56
2022-09-23T04:28:42.842Z,95.07
2022-09-23T04:29:42.908Z,94.76
2022-09-23T04:30:42.990Z,94.87
2022-09-23T04:31:42.922Z,95.01
2022-09-23T04:32:42.918Z,94.66
2022-09-23T04:33:42.863Z,94.66
2022-09-23T04:34:42.967Z,94.76
2022-09-23T04:35:42.862Z,95.32
2022-09-23T04:36:42.869Z,95.01
2022-09-23T04:37:42.874Z,94.60
2022-09-23T04:38:42.842Z,95.01
2022-09-23T04:39:42.844Z,95.32
2022-09-23T04:40:42.955Z,95.01
2022-09-23T04:41:42.895Z,95.07
2022-09-23T04:42:42.787Z,94.29
2022-09-23T04:43:42.849Z,93.98
2022-09-23T04:44:42.740Z,93.77
2022-09-23T04:45:42.744Z,93.56
2022-09-23T04:46:42.759Z,93.66
2022-09-23T04:47:42.741Z,94.91
2022-09-23T04:48:42.882Z,94.60
2022-09-23T04:49:42.785Z,94.91
2022-09-23T04:50:42.760Z,96.67
2022-09-23T04:51:42.782Z,96.05
2022-09-23T04:52:42.784Z,96.88
2022-09-23T04:53:42.761Z,96.26
2022-09-23T04:54:42.667Z,96.78
2022-09-23T04:55:42.777Z,96.78
2022-09-23T04:56:42.725Z,97.09
2022-09-23T04:57:42.828Z,96.36
2022-09-23T04:58:42.691Z,96.98
2022-09-23T04:59:42.617Z,96.88
2022-09-23T05:00:42.735Z,96.15
2022-09-23T05:01:42.822Z,96.52
2022-09-23T05:02:42.707Z,96.42
2022-09-23T05:03:42.704Z,95.80
2022-09-23T05:04:42.564Z,96.01
2022-09-23T05:05:42.592Z,95.07
2022-09-23T05:06:42.563Z,94.97
2022-09-23T05:07:42.589Z,94.97
2022-09-23T05:08:42.553Z,94.81
2022-09-23T05:09:42.572Z,94.70
2022-09-23T05:10:42.507Z,96.05
2022-09-23T05:11:42.495Z,96.15
2022-09-23T05:12:43.634Z,95.64
2022-09-23T05:13:42.665Z,96.05
2022-09-23T05:14:42.618Z,96.05
2022-09-23T05:15:42.629Z,96.98
2022-09-23T05:16:42.736Z,96.36
2022-09-23T05:17:42.577Z,95.95
2022-09-23T05:18:42.626Z,96.26
2022-09-23T05:19:42.618Z,96.05
2022-09-23T05:20:42.633Z,96.82
2022-09-23T05:21:42.576Z,97.03
2022-09-23T05:22:42.564Z,97.03
2022-09-23T05:23:42.512Z,97.55
2022-09-23T05:24:42.551Z,97.65
2022-09-23T05:25:42.572Z,97.34
2022-09-23T05:26:42.516Z,96.72
2022-09-23T05:27:42.518Z,97.03
2022-09-23T05:28:42.431Z,97.03
2022-09-23T05:29:43.459Z,96.92
2022-09-23T05:30:42.504Z,97.24
2022-09-23T05:31:42.534Z,96.92
2022-09-23T05:32:42.469Z,96.92
2022-09-23T05:33:42.454Z,96.82
2022-09-23T05:34:42.484Z,96.61
2022-09-23T05:35:43.372Z,96.92
2022-09-23T05:36:42.477Z,95.68
2022-09-23T05:37:42.512Z,96.24
2022-09-23T05:38:42.463Z,95.99
2022-09-23T05:39:42.495Z,96.20
2022-09-23T05:40:42.897Z,96.82
2022-09-23T05:41:42.471Z,96.92
2022-09-23T05:42:42.429Z,96.61
2022-09-23T05:43:42.474Z,96.05
2022-09-23T05:44:42.425Z,95.43
2022-09-23T05:45:42.290Z,94.60
2022-09-23T05:46:42.407Z,94.81
2022-09-23T05:47:42.303Z,95.12
2022-09-23T05:48:42.247Z,94.81
2022-09-23T05:49:55.645Z,95.16
2022-09-23T05:50:44.273Z,95.01
2022-09-23T05:51:42.297Z,94.60
2022-09-23T05:52:42.328Z,94.81
2022-09-23T05:53:42.329Z,96.57
2022-09-23T05:54:42.245Z,97.29
2022-09-23T05:55:42.307Z,97.50
2022-09-23T05:56:42.366Z,96.36
2022-09-23T05:57:42.322Z,96.98
2022-09-23T05:58:42.287Z,96.83
2022-09-23T05:59:42.274Z,97.14
2022-09-23T06:00:42.348Z,97.66
2022-09-23T06:01:42.304Z,97.41
2022-09-23T06:02:42.378Z,96.79
2022-09-23T06:03:42.281Z,97.26
2022-09-23T06:04:42.235Z,97.26
2022-09-23T06:05:43.149Z,96.95
2022-09-23T06:06:42.151Z,96.79
2022-09-23T06:07:42.174Z,96.23
2022-09-23T06:08:42.185Z,96.79
2022-09-23T06:09:42.127Z,96.64
2022-09-23T06:10:42.129Z,96.44
2022-09-23T06:11:42.108Z,96.33
2022-09-23T06:12:42.130Z,97.22
2022-09-23T06:13:42.251Z,97.32
2022-09-23T06:14:42.169Z,97.07
2022-09-23T06:15:42.249Z,96.97
2022-09-23T06:16:42.143Z,97.07
2022-09-23T06:17:42.195Z,96.14
2022-09-23T06:18:42.154Z,96.55
2022-09-23T06:19:42.170Z,96.09
2022-09-23T06:20:42.140Z,96.30
2022-09-23T06:21:42.135Z,95.74
2022-09-23T06:22:42.132Z,95.32
2022-09-23T06:23:42.334Z,94.81
2022-09-23T06:24:42.023Z,94.25
2022-09-23T06:25:42.015Z,94.46
2022-09-23T06:26:41.998Z,94.46
2022-09-23T06:27:41.977Z,93.59
2022-09-23T06:28:42.090Z,93.28
2022-09-23T06:29:42.092Z,93.01
2022-09-23T06:30:42.064Z,92.80
2022-09-23T06:31:42.247Z,93.22
2022-09-23T06:32:42.057Z,93.90
2022-09-23T06:33:42.053Z,93.94
2022-09-23T06:34:51.252Z,93.73
2022-09-23T06:35:54.655Z,93.63
2022-09-23T06:36:45.531Z,94.04
2022-09-23T06:37:43.007Z,94.56
2022-09-23T06:38:42.009Z,94.46
2022-09-23T06:39:41.990Z,95.49
2022-09-23T06:40:42.052Z,95.70
2022-09-23T06:41:41.974Z,95.49
2022-09-23T06:42:41.914Z,95.90
2022-09-23T06:43:41.911Z,95.59
2022-09-23T06:44:41.911Z,96.05
2022-09-23T06:45:41.953Z,95.64
2022-09-23T06:46:41.963Z,95.84
2022-09-23T06:47:41.854Z,96.56
2022-09-23T06:48:46.019Z,95.95
2022-09-23T06:49:42.833Z,96.26
2022-09-23T06:50:41.847Z,96.05
2022-09-23T06:51:42.002Z,97.08
2022-09-23T06:52:41.901Z,96.36
2022-09-23T06:53:41.889Z,97.19
2022-09-23T06:54:41.800Z,96.36
2022-09-23T06:55:41.880Z,96.67
2022-09-23T06:56:41.914Z,97.19
2022-09-23T06:57:42.804Z,97.04
2022-09-23T06:58:41.835Z,97.08
2022-09-23T06:59:41.882Z,96.77
2022-09-23T07:00:41.856Z,97.04
2022-09-23T07:01:42.073Z,97.04
2022-09-23T07:02:41.850Z,97.25
2022-09-23T07:03:41.743Z,96.83
2022-09-23T07:04:41.736Z,96.88
2022-09-23T07:05:41.839Z,97.08
2022-09-23T07:06:41.724Z,97.64
2022-09-23T07:07:41.832Z,97.50
2022-09-23T07:08:41.784Z,97.81
2022-09-23T07:09:41.811Z,98.43
2022-09-23T07:10:41.783Z,98.43
2022-09-23T07:11:41.798Z,98.43
2022-09-23T07:12:41.764Z,97.71
2022-09-23T07:13:41.851Z,97.71
2022-09-23T07:14:41.728Z,97.81
2022-09-23T07:15:41.774Z,97.91
2022-09-23T07:16:41.737Z,98.11
2022-09-23T07:17:41.721Z,98.63
2022-09-23T07:18:41.755Z,98.38
2022-09-23T07:19:45.684Z,98.07
2022-09-23T07:20:41.674Z,97.76
2022-09-23T07:21:41.621Z,97.86
2022-09-23T07:22:41.642Z,97.30
2022-09-23T07:23:41.692Z,97.51
2022-09-23T07:24:41.639Z,96.27
2022-09-23T07:25:41.599Z,96.17
2022-09-23T07:26:45.602Z,96.53
2022-09-23T07:27:42.556Z,97.05
2022-09-23T07:28:41.574Z,96.74
2022-09-23T07:29:48.557Z,96.95
2022-09-23T07:30:56.214Z,96.17
2022-09-23T07:31:43.600Z,96.02
2022-09-23T07:32:48.368Z,96.44
2022-09-23T07:33:43.691Z,96.33
2022-09-23T07:34:41.675Z,96.53
2022-09-23T07:35:41.650Z,96.33
2022-09-23T07:36:41.685Z,96.44
2022-09-23T07:37:41.590Z,96.12
2022-09-23T07:38:45.424Z,97.16
2022-09-23T07:39:42.607Z,96.91
2022-09-23T07:40:42.421Z,96.74
2022-09-23T07:41:41.689Z,97.16
2022-09-23T07:42:41.595Z,97.31
2022-09-23T07:43:42.535Z,97.31
2022-09-23T07:44:41.540Z,96.96
2022-09-23T07:45:41.457Z,96.80
2022-09-23T07:46:41.636Z,96.28
2022-09-23T07:47:41.444Z,97.01
2022-09-23T07:48:41.445Z,97.01
2022-09-23T07:49:41.520Z,95.77
2022-09-23T07:50:41.472Z,96.71
2022-09-23T07:51:41.529Z,95.89
2022-09-23T07:52:41.478Z,95.68
2022-09-23T07:53:41.464Z,95.78
2022-09-23T07:54:41.376Z,95.53
2022-09-23T07:55:41.490Z,94.60
2022-09-23T07:56:42.470Z,93.95
2022-09-23T07:57:41.501Z,93.68
2022-09-23T07:58:41.459Z,94.05
2022-09-23T07:59:41.523Z,94.21
2022-09-23T08:00:41.450Z,93.02
2022-09-23T08:01:41.409Z,92.46
2022-09-23T08:02:41.428Z,92.16
2022-09-23T08:03:41.395Z,92.17
2022-09-23T08:04:41.438Z,91.29
2022-09-23T08:05:41.412Z,90.26
2022-09-23T08:06:41.429Z,89.91
2022-09-23T08:07:41.331Z,89.50
2022-09-23T08:08:41.304Z,89.81
2022-09-23T08:09:41.392Z,90.12
2022-09-23T08:10:41.275Z,90.01
2022-09-23T08:11:41.411Z,89.91
2022-09-23T08:12:41.409Z,90.01
2022-09-23T08:13:41.350Z,90.67
2022-09-23T08:14:41.264Z,90.98
2022-09-23T08:15:41.372Z,91.25
2022-09-23T08:16:41.362Z,91.10
2022-09-23T08:17:41.333Z,91.00
2022-09-23T08:18:41.429Z,90.89
2022-09-23T08:19:41.343Z,90.28
2022-09-23T08:20:43.692Z,90.38
2022-09-23T08:21:43.280Z,90.75
2022-09-23T08:22:41.336Z,90.55
2022-09-23T08:23:41.348Z,90.30
2022-09-23T08:24:41.360Z,89.54
2022-09-23T08:25:43.664Z,88.41
2022-09-23T08:26:41.278Z,87.24
2022-09-23T08:27:41.300Z,86.93
2022-09-23T08:28:41.181Z,87.41
2022-09-23T08:29:41.180Z,88.27
2022-09-23T08:30:41.254Z,87.20
2022-09-23T08:31:41.147Z,87.10
2022-09-23T08:32:41.136Z,86.58
2022-09-23T08:33:41.107Z,86.99
2022-09-23T08:34:41.168Z,86.58
2022-09-23T08:35:42.237Z,86.90
2022-09-23T08:36:41.103Z,86.79
2022-09-23T08:37:41.177Z,87.26
2022-09-23T08:38:41.222Z,86.61
2022-09-23T08:39:41.211Z,85.69
2022-09-23T08:40:41.262Z,85.55
2022-09-23T08:41:41.156Z,85.14
2022-09-23T08:42:41.167Z,84.69
2022-09-23T08:43:41.228Z,85.61
2022-09-23T08:44:41.114Z,84.48
2022-09-23T08:45:41.234Z,84.17
2022-09-23T08:46:41.142Z,85.16
2022-09-23T08:47:41.117Z,85.20
2022-09-23T08:48:41.047Z,85.50
2022-09-23T08:49:41.014Z,85.61
2022-09-23T08:50:41.251Z,84.95
2022-09-23T08:51:40.956Z,84.95
2022-09-23T08:52:40.971Z,84.30
2022-09-23T08:53:41.007Z,83.95
2022-09-23T08:54:40.976Z,83.14
2022-09-23T08:55:40.967Z,83.54
2022-09-23T08:56:41.026Z,83.14
2022-09-23T08:57:40.982Z,83.10
2022-09-23T08:58:41.054Z,82.49
2022-09-23T08:59:41.073Z,82.14
2022-09-23T09:00:41.072Z,81.09
2022-09-23T09:01:41.162Z,80.98
2022-09-23T09:02:42.391Z,80.07
2022-09-23T09:03:41.014Z,79.96
2022-09-23T09:04:41.003Z,80.20
2022-09-23T09:05:40.989Z,80.10
2022-09-23T09:06:52.393Z,79.69
2022-09-23T09:07:42.929Z,78.16
2022-09-23T09:08:41.008Z,77.45
2022-09-23T09:09:40.950Z,77.41
2022-09-23T09:10:40.972Z,78.09
2022-09-23T09:11:42.766Z,78.09
2022-09-23T09:12:40.884Z,77.07
2022-09-23T09:13:40.874Z,76.42
2022-09-23T09:14:40.812Z,74.69
2022-09-23T09:15:41.212Z,76.93
2022-09-23T09:16:58.859Z,76.62
2022-09-23T09:17:42.836Z,76.32
2022-09-23T09:18:40.777Z,76.66
2022-09-23T09:19:40.897Z,77.24
2022-09-23T09:20:40.887Z,77.00
2022-09-23T09:21:40.872Z,74.82
2022-09-23T09:22:40.850Z,74.11
2022-09-23T09:23:40.887Z,74.52
2022-09-23T09:24:40.860Z,73.36
2022-09-23T09:25:40.843Z,73.16
2022-09-23T09:26:40.872Z,71.30
2022-09-23T09:27:40.874Z,71.30
2022-09-23T09:28:40.852Z,71.91
2022-09-23T09:29:41.160Z,72.11
2022-09-23T09:30:41.176Z,72.75
2022-09-23T09:31:40.885Z,73.26
2022-09-23T09:32:40.799Z,74.48
2022-09-23T09:33:40.827Z,72.52
2022-09-23T09:34:40.822Z,72.72
2022-09-23T09:35:40.684Z,74.15
2022-09-23T09:36:40.645Z,72.89
2022-09-23T09:37:40.697Z,72.45
2022-09-23T09:38:40.626Z,72.04
2022-09-23T09:39:40.689Z,72.31
2022-09-23T09:40:40.673Z,70.86
2022-09-23T09:41:40.639Z,71.20
2022-09-23T09:42:40.631Z,71.23
2022-09-23T09:43:44.002Z,72.78
2022-09-23T09:44:41.670Z,73.30
2022-09-23T09:45:40.596Z,72.85
2022-09-23T09:46:40.768Z,72.62
2022-09-23T09:47:40.701Z,72.62
2022-09-23T09:48:40.691Z,73.13
2022-09-23T09:49:40.883Z,70.76
2022-09-23T09:50:40.785Z,70.86
2022-09-23T09:51:40.705Z,70.52
2022-09-23T09:52:43.357Z,70.52
2022-09-23T09:53:40.602Z,69.10
2022-09-23T09:54:40.696Z,68.66
2022-09-23T09:55:40.794Z,69.91
2022-09-23T09:56:40.534Z,68.96
2022-09-23T09:57:40.508Z,67.88
2022-09-23T09:58:40.455Z,68.90
2022-09-23T09:59:40.458Z,70.01
2022-09-23T10:00:40.541Z,69.81
2022-09-23T10:01:40.551Z,70.59
2022-09-23T10:02:40.503Z,70.39
2022-09-23T10:03:40.528Z,67.92
2022-09-23T10:04:41.177Z,67.31
2022-09-23T10:05:40.492Z,66.60
2022-09-23T10:06:40.542Z,68.12
2022-09-23T10:07:40.455Z,67.68
2022-09-23T10:08:40.466Z,68.19
2022-09-23T10:09:40.480Z,66.16
2022-09-23T10:10:40.480Z,67.38
2022-09-23T10:11:40.477Z,68.49
2022-09-23T10:12:41.405Z,68.09
2022-09-23T10:13:40.452Z,67.51
2022-09-23T10:14:40.406Z,68.52
2022-09-23T10:15:44.462Z,67.89
2022-09-23T10:16:41.492Z,67.58
2022-09-23T10:17:40.365Z,66.94
2022-09-23T10:18:40.324Z,66.03
2022-09-23T10:19:40.320Z,63.81
2022-09-23T10:20:40.308Z,63.90
2022-09-23T10:21:40.397Z,64.01
2022-09-23T10:22:40.342Z,67.52
2022-09-23T10:23:40.423Z,67.69
2022-09-23T10:24:40.353Z,63.61
2022-09-23T10:25:40.338Z,62.81
2022-09-23T10:26:40.378Z,64.32
2022-09-23T10:27:40.354Z,63.51
2022-09-23T10:28:40.350Z,61.96
2022-09-23T10:29:41.174Z,60.98
2022-09-23T10:30:40.348Z,60.78
2022-09-23T10:31:40.326Z,61.08
2022-09-23T10:32:40.299Z,62.02
2022-09-23T10:33:40.256Z,63.10
2022-09-23T10:34:40.334Z,60.17
2022-09-23T10:35:40.210Z,61.19
2022-09-23T10:36:44.371Z,62.40
2022-09-23T10:37:41.194Z,60.45
2022-09-23T10:38:40.180Z,60.02
2022-09-23T10:39:40.292Z,59.51
2022-09-23T10:40:40.442Z,58.58
2022-09-23T10:41:40.274Z,57.06
2022-09-23T11:58:32.860Z,50.10
2022-09-23T11:59:40.336Z,52.89
2022-09-23T12:00:35.802Z,51.79
2022-09-23T12:01:37.551Z,51.18
2022-09-23T12:02:34.780Z,51.79
2022-09-23T12:03:43.054Z,51.56
2022-09-23T12:04:36.397Z,50.46
2022-09-23T12:05:33.853Z,50.23
2022-09-23T12:06:33.682Z,49.43
2022-09-23T12:07:33.847Z,49.40
2022-09-23T12:08:33.832Z,48.20
2022-09-23T12:09:56.570Z,49.15
2022-09-23T12:10:35.650Z,49.22
2022-09-23T12:11:33.734Z,48.63
2022-09-23T12:12:33.728Z,49.33
2022-09-23T12:13:33.725Z,49.22
2022-09-23T12:14:33.746Z,49.02
2022-09-23T12:15:33.702Z,49.22
2022-09-23T12:16:33.744Z,48.40
2022-09-23T12:17:34.213Z,48.93
2022-09-23T12:18:33.679Z,48.50
2022-09-23T12:19:33.741Z,48.90
2022-09-23T12:20:33.698Z,48.43
2022-09-23T12:22:35.586Z,50.11
2022-09-23T12:23:33.705Z,51.79
2022-09-23T12:24:33.668Z,49.84
2022-09-23T12:25:33.671Z,48.35
2022-09-23T12:26:33.650Z,50.62
2022-09-23T12:27:33.644Z,48.41
2022-09-23T12:28:33.633Z,47.53
2022-09-23T12:29:33.640Z,47.15
2022-09-23T12:30:33.728Z,47.17
2022-09-23T12:31:36.048Z,47.38
2022-09-23T12:32:34.698Z,47.85
2022-09-23T12:33:33.600Z,49.66
2022-09-23T12:34:33.641Z,47.33
2022-09-23T12:35:33.617Z,48.53
2022-09-23T12:36:34.635Z,48.23
2022-09-23T12:37:33.583Z,50.44
2022-09-23T12:38:33.487Z,48.81
2022-09-23T12:39:33.485Z,47.50
2022-09-23T12:40:33.538Z,48.19
2022-09-23T12:41:33.500Z,47.16
2022-09-23T12:42:33.490Z,47.06
2022-09-23T12:43:33.487Z,47.49
2022-09-23T12:44:33.453Z,46.38
2022-09-23T12:45:33.490Z,47.19
2022-09-23T12:46:33.459Z,46.56
2022-09-23T12:47:33.528Z,46.76
2022-09-23T12:48:34.629Z,45.94
2022-09-23T12:49:33.474Z,46.12
2022-09-23T12:50:33.465Z,45.62
2022-09-23T12:51:33.491Z,46.89
2022-09-23T12:52:33.505Z,47.72
2022-09-23T12:53:33.467Z,44.79
2022-09-23T12:54:33.394Z,44.82
2022-09-23T12:55:33.517Z,45.39
2022-09-23T12:56:33.459Z,45.97
2022-09-23T12:57:33.338Z,43.15
2022-09-23T12:58:33.747Z,41.91
2022-09-23T12:59:33.299Z,42.97
2022-09-23T13:00:34.376Z,41.67
2022-09-23T13:01:34.580Z,41.91
2022-09-23T13:02:33.346Z,40.90
2022-09-23T13:03:33.418Z,38.99
2022-09-23T13:04:33.377Z,38.47
2022-09-23T13:05:33.363Z,38.93
2022-09-23T13:06:33.374Z,38.65
2022-09-23T13:07:33.372Z,38.79
2022-09-23T13:08:33.329Z,40.16
2022-09-23T13:09:33.481Z,39.47
2022-09-23T13:10:33.309Z,39.40
2022-09-23T13:11:33.305Z,40.52
2022-09-23T13:12:33.360Z,43.71
2022-09-23T13:13:33.640Z,39.36
2022-09-23T13:14:33.233Z,41.16
2022-09-23T13:15:33.264Z,38.39
2022-09-23T13:16:33.347Z,40.28
2022-09-23T13:17:33.205Z,38.75
2022-09-23T13:18:33.202Z,39.12
2022-09-23T13:19:38.022Z,37.23
2022-09-23T13:20:35.179Z,39.32
2022-09-23T13:21:33.145Z,37.20
2022-09-23T13:22:33.249Z,37.40
2022-09-23T13:23:33.205Z,37.36
2022-09-23T13:24:33.220Z,36.58
2022-09-23T13:25:33.262Z,35.97
2022-09-23T13:26:33.197Z,34.88
2022-09-23T13:27:33.174Z,34.96
2022-09-23T13:28:33.251Z,35.26
2022-09-23T13:29:33.188Z,34.83
2022-09-23T13:30:33.240Z,35.72
2022-09-23T13:31:33.241Z,34.61
2022-09-23T13:32:33.248Z,34.41
2022-09-23T13:33:33.148Z,36.76
2022-09-23T13:34:33.189Z,34.68
2022-09-23T13:35:33.061Z,35.31
2022-09-23T13:36:33.084Z,36.54
2022-09-23T13:37:33.162Z,37.57
2022-09-23T13:38:33.138Z,39.18
2022-09-23T13:39:33.167Z,37.30
2022-09-23T13:40:33.140Z,39.78
2022-09-23T13:41:33.148Z,37.75
2022-09-23T13:42:33.054Z,37.63
2022-09-23T13:43:35.553Z,40.44
2022-09-23T13:44:34.145Z,39.92
2022-09-23T13:45:33.164Z,37.70
2022-09-23T13:46:33.065Z,37.32
2022-09-23T13:47:33.077Z,37.60
2022-09-23T13:48:33.039Z,37.28
2022-09-23T13:49:33.072Z,37.06
2022-09-23T13:50:35.207Z,37.56
2022-09-23T13:51:34.014Z,36.07
2022-09-23T13:52:33.053Z,36.47
2022-09-23T13:53:32.960Z,36.68
2022-09-23T13:54:32.946Z,36.70
2022-09-23T13:55:32.950Z,37.55
2022-09-23T13:56:32.939Z,38.67
2022-09-23T13:57:33.075Z,39.58
2022-09-23T13:58:33.138Z,40.30
2022-09-23T13:59:33.051Z,39.78
2022-09-23T14:00:33.112Z,39.10
2022-09-23T14:01:33.135Z,40.10
2022-09-23T14:02:33.099Z,41.67
2022-09-23T14:03:36.500Z,42.29
2022-09-23T14:04:34.012Z,42.03
2022-09-23T14:05:32.941Z,43.55
2022-09-23T14:06:33.978Z,45.56
2022-09-23T14:07:32.931Z,44.96
2022-09-23T14:08:32.968Z,43.66
2022-09-23T14:09:32.968Z,44.70
2022-09-23T14:10:32.941Z,44.90
2022-09-23T14:11:32.928Z,44.22
2022-09-23T14:12:32.870Z,45.75
2022-09-23T14:13:32.852Z,45.97